Time;durP1;ratioP1;P1;durP2;ratioP2;P2;SDS_P1;SDS_P2;PMS_P1;PMS_P2;Temp;Humidity;BMP_temperature;BMP_pressure;BME280_temperature;BME280_humidity;BME280_pressure;Samples;Min_cycle;Max_cycle;Signal;HPM_P1;HPM_P2
2023/05/21 00:01:05;;;;;;;;;;;;;;;17.11;70.28;101555.28;4197169;28;20031;-65
2023/05/21 00:03:12;;;;;;;;;;;;;;;17.09;70.46;101546.44;4197475;28;20430;-65
2023/05/21 00:05:15;;;;;;;;;;;;;;;17.07;70.59;101548.53;4198014;28;20413;-67
2023/05/21 00:07:17;;;;;;;;;;;;;;;17.06;70.87;101549.56;4196624;28;20028;-65
2023/05/21 00:09:20;;;;;;;;;;;;;;;17.04;71.11;101549.78;4197860;28;20016;-65
2023/05/21 00:11:22;;;;;;;;;;;;;;;17.02;71.12;101545.56;4198029;28;20445;-65
2023/05/21 00:13:24;;;;;;;;;;;;;;;16.96;71.53;101547.22;4196337;28;20023;-67
2023/05/21 00:15:26;;;;;;;;;;;;;;;16.92;71.46;101549.47;4197367;28;20016;-66
2023/05/21 00:17:28;;;;;;;;;;;;;;;16.90;72.03;101551.56;4197496;28;20448;-66
2023/05/21 00:19:32;;;;;;;;;;;;;;;16.89;71.98;101544.41;4197181;28;20015;-67
2023/05/21 00:21:34;;;;;;;;;;;;;;;16.87;72.06;101541.06;4197116;28;20019;-65
2023/05/21 00:23:38;;;;;;;;;;;;;;;16.87;72.12;101542.94;4196545;28;20027;-65
2023/05/21 00:25:40;;;;;;;;;;;;;;;16.87;72.17;101551.97;4197385;28;20023;-66
2023/05/21 00:27:43;;;;;;;;;;;;;;;16.85;72.30;101537.66;4197832;28;20019;-67
2023/05/21 00:29:45;;;;;;;;;;;;;;;16.85;72.41;101540.38;4195926;28;20026;-65
2023/05/21 00:31:47;;;;;;;;;;;;;;;16.82;72.54;101535.34;4211271;28;20056;-67
2023/05/21 00:33:49;;;;;;;;;;;;;;;16.77;72.79;101535.09;4196230;28;20019;-65
2023/05/21 00:35:53;;;;;;;;;;;;;;;16.74;73.13;101532.75;4197620;28;20441;-66
2023/05/21 00:37:55;;;;;;;;;;;;;;;16.70;73.43;101536.91;4196468;28;19924;-66
2023/05/21 00:39:57;;;;;;;;;;;;;;;16.67;73.70;101529.13;4197545;28;20022;-65
2023/05/21 00:41:59;;;;;;;;;;;;;;;16.62;73.52;101527.00;4196129;28;20023;-65
2023/05/21 00:44:02;;;;;;;;;;;;;;;16.56;73.78;101519.59;4195882;28;19925;-66
2023/05/21 00:46:04;;;;;;;;;;;;;;;16.52;73.79;101530.06;4195894;28;20019;-67
2023/05/21 00:48:07;;;;;;;;;;;;;;;16.48;74.14;101520.59;4196523;28;20024;-66
2023/05/21 00:50:10;;;;;;;;;;;;;;;16.46;74.10;101524.56;4196774;28;20323;-67
2023/05/21 00:52:14;;;;;;;;;;;;;;;16.42;74.45;101521.38;4196320;28;20040;-66
2023/05/21 00:54:16;;;;;;;;;;;;;;;16.38;74.39;101517.38;4196743;28;20028;-66
2023/05/21 00:56:18;;;;;;;;;;;;;;;16.35;74.56;101520.50;4195415;28;20032;-66
2023/05/21 00:58:20;;;;;;;;;;;;;;;16.30;74.41;101517.50;4196340;28;21286;-66
2023/05/21 01:00:23;;;;;;;;;;;;;;;16.25;74.70;101519.97;4196119;28;20027;-67
2023/05/21 01:02:25;;;;;;;;;;;;;;;16.19;74.89;101505.22;4196492;28;20031;-66
2023/05/21 01:04:28;;;;;;;;;;;;;;;16.15;74.90;101510.22;4196560;28;20024;-66
2023/05/21 01:06:33;;;;;;;;;;;;;;;16.11;75.13;101511.69;4195622;28;20027;-66
2023/05/21 01:08:36;;;;;;;;;;;;;;;16.10;75.22;101517.31;4196132;28;20031;-67
2023/05/21 01:10:38;;;;;;;;;;;;;;;16.06;75.42;101507.84;4194823;28;20299;-66
2023/05/21 01:12:41;;;;;;;;;;;;;;;16.04;75.45;101502.59;4194622;28;20027;-65
2023/05/21 01:14:43;;;;;;;;;;;;;;;16.01;75.73;101511.97;4195692;28;20455;-67
2023/05/21 01:16:46;;;;;;;;;;;;;;;15.99;75.72;101518.69;4195987;28;20035;-67
2023/05/21 01:18:50;;;;;;;;;;;;;;;15.95;75.68;101514.66;4196748;28;19931;-66
2023/05/21 01:20:52;;;;;;;;;;;;;;;15.93;75.85;101503.09;4196371;28;20365;-67
2023/05/21 01:22:56;;;;;;;;;;;;;;;15.88;75.90;101511.00;4195746;28;20023;-67
2023/05/21 01:25:01;;;;;;;;;;;;;;;15.85;76.03;101514.97;4203315;28;20022;-66
2023/05/21 01:27:05;;;;;;;;;;;;;;;15.83;76.30;101517.88;4196501;28;20343;-67
2023/05/21 01:29:11;;;;;;;;;;;;;;;15.80;76.56;101512.81;4196421;28;20031;-66
2023/05/21 01:31:16;;;;;;;;;;;;;;;15.79;76.32;101505.69;4196522;28;20020;-66
2023/05/21 01:33:20;;;;;;;;;;;;;;;15.77;76.59;101510.47;4196124;28;20031;-67
2023/05/21 01:35:22;;;;;;;;;;;;;;;15.74;76.77;101510.84;4196431;28;20374;-67
2023/05/21 01:37:26;;;;;;;;;;;;;;;15.73;77.04;101505.59;4195965;28;20028;-67
2023/05/21 01:39:32;;;;;;;;;;;;;;;15.71;76.88;101510.38;4195293;28;20421;-66
2023/05/21 01:41:35;;;;;;;;;;;;;;;15.69;76.99;101518.75;4196720;28;20020;-67
2023/05/21 01:43:38;;;;;;;;;;;;;;;15.68;77.16;101508.88;4195616;28;20024;-66
2023/05/21 01:45:40;;;;;;;;;;;;;;;15.67;77.34;101508.06;4195971;28;20031;-67
2023/05/21 01:47:43;;;;;;;;;;;;;;;15.66;77.36;101508.25;4195954;28;20023;-67
2023/05/21 01:49:45;;;;;;;;;;;;;;;15.63;77.36;101505.91;4182234;28;20047;-66
2023/05/21 01:51:47;;;;;;;;;;;;;;;15.61;77.47;101503.38;4195831;28;19971;-67
2023/05/21 01:53:49;;;;;;;;;;;;;;;15.60;77.92;101500.84;4196055;28;20015;-67
2023/05/21 01:55:53;;;;;;;;;;;;;;;15.60;77.66;101503.56;4195001;28;20604;-66
2023/05/21 01:57:55;;;;;;;;;;;;;;;15.58;77.86;101503.75;4165757;28;20016;-67
2023/05/21 01:59:57;;;;;;;;;;;;;;;15.56;77.91;101497.63;4183732;28;20090;-66
2023/05/21 02:01:59;;;;;;;;;;;;;;;15.59;78.25;101494.53;4194921;28;20493;-66
2023/05/21 02:04:04;;;;;;;;;;;;;;;15.59;77.79;101493.69;4194867;28;20024;-66
2023/05/21 02:06:07;;;;;;;;;;;;;;;15.57;78.16;101493.06;4196172;28;20048;-67
2023/05/21 02:08:10;;;;;;;;;;;;;;;15.54;78.22;101498.88;4202401;28;20916;-67
2023/05/21 02:10:12;;;;;;;;;;;;;;;15.49;78.09;101492.13;4194326;28;20015;-66
2023/05/21 02:12:15;;;;;;;;;;;;;;;15.48;78.24;101500.47;4194496;28;20031;-66
2023/05/21 02:14:19;;;;;;;;;;;;;;;15.46;78.51;101491.66;4194556;28;20015;-66
2023/05/21 02:16:22;;;;;;;;;;;;;;;15.43;78.50;101486.59;4211760;28;20031;-66
2023/05/21 02:18:25;;;;;;;;;;;;;;;15.42;78.52;101488.50;4194275;28;20018;-66
2023/05/21 02:20:27;;;;;;;;;;;;;;;15.42;78.75;101483.03;4195046;28;20416;-66
2023/05/21 02:22:30;;;;;;;;;;;;;;;15.42;78.66;101482.19;4196221;28;20019;-67
2023/05/21 02:24:32;;;;;;;;;;;;;;;15.41;78.69;101484.06;4196183;28;19925;-65
2023/05/21 02:26:34;;;;;;;;;;;;;;;15.39;78.71;101477.13;4195434;28;20015;-66
2023/05/21 02:28:39;;;;;;;;;;;;;;;15.38;78.84;101487.16;4195329;28;20019;-67
2023/05/21 02:30:43;;;;;;;;;;;;;;;15.38;79.21;101487.16;4195005;28;20022;-67
2023/05/21 02:32:47;;;;;;;;;;;;;;;15.37;79.23;101482.75;4195494;28;20003;-66
2023/05/21 02:34:49;;;;;;;;;;;;;;;15.37;79.44;101485.47;4194301;28;20011;-67
2023/05/21 02:36:52;;;;;;;;;;;;;;;15.36;79.17;101491.97;4194879;28;19964;-67
2023/05/21 02:38:56;;;;;;;;;;;;;;;15.34;79.62;101487.75;4194644;28;20071;-67
2023/05/21 02:40:58;;;;;;;;;;;;;;;15.30;79.80;101488.13;4194724;28;19929;-65
2023/05/21 02:43:00;;;;;;;;;;;;;;;15.29;79.98;101482.88;4194731;28;20011;-67
2023/05/21 02:45:05;;;;;;;;;;;;;;;15.26;80.06;101481.34;4194494;28;20019;-67
2023/05/21 02:47:09;;;;;;;;;;;;;;;15.24;80.27;101478.00;4193259;28;20024;-67
2023/05/21 02:49:12;;;;;;;;;;;;;;;15.22;80.47;101477.34;4194327;28;20043;-67
2023/05/21 02:51:16;;;;;;;;;;;;;;;15.25;80.26;101479.69;4211203;28;20015;-67
2023/05/21 02:53:18;;;;;;;;;;;;;;;15.27;80.64;101474.91;4194197;28;20024;-67
2023/05/21 02:55:21;;;;;;;;;;;;;;;15.27;80.37;101474.06;4187241;28;20019;-66
2023/05/21 02:57:23;;;;;;;;;;;;;;;15.27;80.44;101476.78;4195701;28;20027;-66
2023/05/21 02:59:26;;;;;;;;;;;;;;;15.28;80.66;101473.00;4194792;28;20020;-66
2023/05/21 03:01:29;;;;;;;;;;;;;;;15.25;80.81;101468.81;4211355;28;19928;-66
2023/05/21 03:03:32;;;;;;;;;;;;;;;15.24;80.74;101467.09;4177078;28;20407;-66
2023/05/21 03:05:34;;;;;;;;;;;;;;;15.24;80.83;101469.00;4194517;28;20497;-66
2023/05/21 03:07:38;;;;;;;;;;;;;;;15.21;81.21;101470.22;4195030;28;20011;-66
2023/05/21 03:09:40;;;;;;;;;;;;;;;15.20;81.24;101468.50;4195054;28;20012;-67
2023/05/21 03:11:43;;;;;;;;;;;;;;;15.19;81.22;101471.41;4194036;28;20016;-66
2023/05/21 03:13:45;;;;;;;;;;;;;;;15.16;81.39;101466.34;4194894;28;20020;-66
2023/05/21 03:15:47;;;;;;;;;;;;;;;15.16;81.65;101466.34;4195027;28;20031;-66
2023/05/21 03:17:52;;;;;;;;;;;;;;;15.12;81.91;101469.50;4194574;28;20023;-66
2023/05/21 03:19:55;;;;;;;;;;;;;;;15.11;81.93;101466.97;4194885;28;20015;-67
2023/05/21 03:21:57;;;;;;;;;;;;;;;15.10;82.08;101471.53;4194396;28;20401;-66
2023/05/21 03:23:59;;;;;;;;;;;;;;;15.09;82.12;101472.59;4194975;28;20019;-67
2023/05/21 03:26:02;;;;;;;;;;;;;;;15.08;82.27;101475.50;4194819;28;20047;-66
2023/05/21 03:28:04;;;;;;;;;;;;;;;15.07;82.39;101471.06;4195350;28;20019;-67
2023/05/21 03:30:21;;;;;;;;;;;;;;;15.09;82.48;101466.28;4193060;28;20027;-66
2023/05/21 03:32:46;;;;;;;;;;;;;;;15.10;82.36;101465.25;4193026;28;19932;-66
2023/05/21 03:34:49;;;;;;;;;;;;;;;15.10;82.72;101467.97;4193868;28;20027;-65
2023/05/21 03:36:53;;;;;;;;;;;;;;;15.10;82.85;101459.81;4184803;28;20024;-67
2023/05/21 03:38:56;;;;;;;;;;;;;;;15.10;83.12;101466.09;4193901;28;20019;-66
2023/05/21 03:40:59;;;;;;;;;;;;;;;15.13;83.15;101463.00;4177406;28;19956;-67
2023/05/21 03:43:02;;;;;;;;;;;;;;;15.18;83.48;101467.88;4194046;28;19942;-66
2023/05/21 03:45:04;;;;;;;;;;;;;;;15.20;83.84;101468.50;4180227;28;20374;-66
2023/05/21 03:47:26;;;;;;;;;;;;;;;15.25;83.92;101476.97;4195106;28;20023;-66
2023/05/21 03:49:30;;;;;;;;;;;;;;;15.27;84.12;101479.50;4193750;28;20373;-66
2023/05/21 03:51:34;;;;;;;;;;;;;;;15.32;84.06;101474.31;4209474;28;20049;-65
2023/05/21 03:53:37;;;;;;;;;;;;;;;15.36;84.12;101472.91;4210796;28;20023;-66
2023/05/21 03:55:39;;;;;;;;;;;;;;;15.42;84.06;101471.28;4193447;28;20016;-65
2023/05/21 03:57:41;;;;;;;;;;;;;;;15.44;83.69;101472.81;4202259;28;20035;-66
2023/05/21 03:59:44;;;;;;;;;;;;;;;15.48;83.63;101473.25;4194394;28;20050;-66
2023/05/21 04:01:47;;;;;;;;;;;;;;;15.51;83.63;101470.16;4193897;28;20623;-65
2023/05/21 04:03:51;;;;;;;;;;;;;;;15.54;84.03;101472.50;4207666;28;19924;-65
2023/05/21 04:05:55;;;;;;;;;;;;;;;15.55;83.75;101471.47;4193216;28;20031;-65
2023/05/21 04:07:59;;;;;;;;;;;;;;;15.61;83.48;101467.97;4193259;28;20011;-66
2023/05/21 04:10:02;;;;;;;;;;;;;;;15.63;83.79;101468.63;4182733;28;20015;-66
2023/05/21 04:12:06;;;;;;;;;;;;;;;15.68;83.43;101477.03;4209404;28;20027;-65
2023/05/21 04:14:08;;;;;;;;;;;;;;;15.75;83.09;101479.00;4181575;28;20027;-66
2023/05/21 04:16:13;;;;;;;;;;;;;;;15.78;82.86;101476.78;4183171;28;20429;-66
2023/05/21 04:18:16;;;;;;;;;;;;;;;15.86;82.45;101475.78;4192398;28;20023;-66
2023/05/21 04:20:18;;;;;;;;;;;;;;;15.90;82.79;101476.25;4192443;28;20424;-66
2023/05/21 04:22:22;;;;;;;;;;;;;;;15.93;82.51;101470.41;4193093;28;20470;-65
2023/05/21 04:24:25;;;;;;;;;;;;;;;15.95;82.71;101473.78;4193659;28;20015;-66
2023/05/21 04:26:43;;;;;;;;;;;;;;;15.99;82.58;101472.38;4185360;28;20034;-66
2023/05/21 04:28:46;;;;;;;;;;;;;;;16.03;82.69;101479.09;4192873;28;20019;-65
2023/05/21 04:30:49;;;;;;;;;;;;;;;16.06;82.43;101475.97;4192589;28;20059;-66
2023/05/21 04:32:51;;;;;;;;;;;;;;;16.10;82.44;101476.44;4190803;28;20019;-66
2023/05/21 04:34:53;;;;;;;;;;;;;;;16.14;82.10;101475.00;4210499;28;20031;-67
2023/05/21 04:36:56;;;;;;;;;;;;;;;16.17;82.25;101475.44;4193986;28;20016;-67
2023/05/21 04:39:00;;;;;;;;;;;;;;;16.20;82.42;101472.31;4193445;28;20032;-66
2023/05/21 04:41:05;;;;;;;;;;;;;;;16.22;82.30;101483.03;4193496;28;20015;-67
2023/05/21 04:43:07;;;;;;;;;;;;;;;16.24;82.43;101478.25;4192285;28;20023;-66
2023/05/21 04:45:10;;;;;;;;;;;;;;;16.28;82.16;101473.25;4211755;28;20482;-66
2023/05/21 04:47:14;;;;;;;;;;;;;;;16.31;82.25;101478.28;4193454;28;20024;-66
2023/05/21 04:49:16;;;;;;;;;;;;;;;16.35;82.20;101479.59;4196569;28;20020;-67
2023/05/21 04:51:19;;;;;;;;;;;;;;;16.39;82.00;101481.72;4189975;28;20019;-66
2023/05/21 04:53:21;;;;;;;;;;;;;;;16.44;81.38;101477.56;4196591;28;20019;-66
2023/05/21 04:55:23;;;;;;;;;;;;;;;16.46;82.35;101481.78;4210430;28;20014;-66
2023/05/21 04:57:27;;;;;;;;;;;;;;;16.51;81.29;101479.28;4211680;28;20042;-66
2023/05/21 04:59:29;;;;;;;;;;;;;;;16.55;80.92;101479.72;4212588;28;20023;-67
2023/05/21 05:01:31;;;;;;;;;;;;;;;16.60;80.68;101482.72;4195055;28;20018;-66
2023/05/21 05:03:34;;;;;;;;;;;;;;;16.61;81.43;101478.94;4196309;28;20498;-66
2023/05/21 05:05:36;;;;;;;;;;;;;;;16.64;81.20;101486.72;4196362;28;19963;-66
2023/05/21 05:07:38;;;;;;;;;;;;;;;16.70;79.35;101477.75;4196827;28;20071;-66
2023/05/21 05:09:40;;;;;;;;;;;;;;;16.77;77.50;101486.00;4211276;28;20019;-66
2023/05/21 05:11:43;;;;;;;;;;;;;;;16.81;78.10;101481.81;4195155;28;20027;-65
2023/05/21 05:13:47;;;;;;;;;;;;;;;16.85;76.72;101488.56;4195966;28;20020;-65
2023/05/21 05:15:51;;;;;;;;;;;;;;;16.88;76.33;101485.47;4195818;28;20027;-66
2023/05/21 05:17:53;;;;;;;;;;;;;;;16.90;77.56;101486.09;4195415;28;20375;-65
2023/05/21 05:19:55;;;;;;;;;;;;;;;16.92;77.44;101477.69;4192439;28;20015;-66
2023/05/21 05:21:57;;;;;;;;;;;;;;;16.93;77.87;101482.13;4176616;28;20019;-64
2023/05/21 05:23:59;;;;;;;;;;;;;;;16.95;78.15;101481.94;4192935;28;20442;-65
2023/05/21 05:26:04;;;;;;;;;;;;;;;16.93;78.64;101472.03;4194965;28;19928;-66
2023/05/21 05:28:06;;;;;;;;;;;;;;;16.97;78.69;101477.94;4193558;28;20023;-65
2023/05/21 05:30:10;;;;;;;;;;;;;;;16.96;78.07;101470.81;4195866;28;20005;-66
2023/05/21 05:32:12;;;;;;;;;;;;;;;17.02;77.02;101478.19;4194648;28;19928;-66
2023/05/21 05:34:14;;;;;;;;;;;;;;;17.04;75.84;101475.25;4211314;28;20035;-65
2023/05/21 05:36:16;;;;;;;;;;;;;;;17.07;75.90;101483.88;4194873;28;20027;-65
2023/05/21 05:38:19;;;;;;;;;;;;;;;17.07;77.04;101478.41;4195030;28;20027;-65
2023/05/21 05:40:21;;;;;;;;;;;;;;;17.10;76.53;101479.91;4195157;28;20458;-66
2023/05/21 05:42:23;;;;;;;;;;;;;;;17.09;76.59;101483.69;4194885;28;20019;-65
2023/05/21 05:44:26;;;;;;;;;;;;;;;17.15;75.97;101493.78;4210718;28;20018;-66
2023/05/21 05:46:30;;;;;;;;;;;;;;;17.17;75.83;101488.97;4194619;28;20393;-66
2023/05/21 05:48:32;;;;;;;;;;;;;;;17.18;76.53;101487.94;4195614;28;20015;-66
2023/05/21 05:50:35;;;;;;;;;;;;;;;17.21;74.45;101479.31;4186682;28;20020;-67
2023/05/21 05:52:37;;;;;;;;;;;;;;;17.24;74.59;101478.06;4195256;28;20465;-67
2023/05/21 05:54:39;;;;;;;;;;;;;;;17.25;73.90;101483.31;4210666;28;20020;-66
2023/05/21 05:56:41;;;;;;;;;;;;;;;17.27;74.81;101483.97;4211049;28;20027;-66
2023/05/21 05:58:43;;;;;;;;;;;;;;;17.32;74.07;101477.03;4194705;28;20019;-66
2023/05/21 06:00:48;;;;;;;;;;;;;;;17.34;72.51;101472.25;4203008;28;20011;-67
2023/05/21 06:02:51;;;;;;;;;;;;;;;17.36;73.89;101481.06;4194299;28;20060;-66
2023/05/21 06:04:53;;;;;;;;;;;;;;;17.37;73.01;101475.41;4194561;28;20023;-66
2023/05/21 06:06:56;;;;;;;;;;;;;;;17.38;72.61;101470.78;4193558;28;20405;-66
2023/05/21 06:08:58;;;;;;;;;;;;;;;17.39;73.63;101473.28;4194976;28;20027;-67
2023/05/21 06:11:00;;;;;;;;;;;;;;;17.40;72.62;101471.44;4193046;28;20027;-66
2023/05/21 06:13:02;;;;;;;;;;;;;;;17.44;72.64;101467.22;4194842;28;20027;-67
2023/05/21 06:15:05;;;;;;;;;;;;;;;17.47;71.34;101467.66;4194658;28;20019;-66
2023/05/21 06:17:07;;;;;;;;;;;;;;;17.48;72.04;101474.81;4194852;28;20030;-66
2023/05/21 06:19:11;;;;;;;;;;;;;;;17.47;72.66;101469.53;4194466;28;20015;-66
2023/05/21 06:21:13;;;;;;;;;;;;;;;17.47;71.88;101473.09;4194494;28;20031;-64
2023/05/21 06:23:15;;;;;;;;;;;;;;;17.48;71.25;101461.16;4194838;28;20023;-66
2023/05/21 06:25:19;;;;;;;;;;;;;;;17.50;72.74;101466.41;4193016;28;20011;-65
2023/05/21 06:27:23;;;;;;;;;;;;;;;17.52;73.57;101466.19;4194328;28;19970;-65
2023/05/21 06:29:25;;;;;;;;;;;;;;;17.52;72.30;101464.31;4202331;28;20045;-66
2023/05/21 06:31:27;;;;;;;;;;;;;;;17.52;73.11;101460.75;4193122;28;20020;-65
2023/05/21 06:33:30;;;;;;;;;;;;;;;17.53;71.52;101468.72;4200577;28;20039;-65
2023/05/21 06:35:35;;;;;;;;;;;;;;;17.55;71.24;101452.13;4186771;28;20030;-66
2023/05/21 06:37:38;;;;;;;;;;;;;;;17.57;71.50;101461.81;4193896;28;20027;-66
2023/05/21 06:39:40;;;;;;;;;;;;;;;17.59;72.32;101464.34;4211025;28;20024;-65
2023/05/21 06:41:42;;;;;;;;;;;;;;;17.60;72.20;101464.13;4209217;28;20022;-65
2023/05/21 06:44:04;;;;;;;;;;;;;;;17.61;72.18;101459.50;4194367;28;20379;-65
2023/05/21 06:46:35;;;;;;;;;;;;;;;17.60;71.73;101455.06;4193626;28;20454;-66
2023/05/21 06:48:42;;;;;;;;;;;;;;;17.61;70.72;101467.69;4193644;28;19946;-66
2023/05/21 06:50:45;;;;;;;;;;;;;;;17.63;70.93;101462.88;4210759;28;20043;-66
2023/05/21 06:52:47;;;;;;;;;;;;;;;17.64;71.28;101454.47;4194290;28;20027;-66
2023/05/21 06:54:51;;;;;;;;;;;;;;;17.64;71.87;101457.19;4191872;28;20027;-66
2023/05/21 06:56:54;;;;;;;;;;;;;;;17.65;71.45;101452.59;4192492;28;20035;-66
2023/05/21 06:58:56;;;;;;;;;;;;;;;17.68;70.37;101456.78;4193930;28;20043;-66
2023/05/21 07:00:58;;;;;;;;;;;;;;;17.70;70.24;101460.16;4193564;28;20059;-67
2023/05/21 07:03:00;;;;;;;;;;;;;;;17.69;70.05;101463.94;4193975;28;20470;-65
2023/05/21 07:05:03;;;;;;;;;;;;;;;17.71;69.59;101464.56;4193449;28;20019;-66
2023/05/21 07:07:06;;;;;;;;;;;;;;;17.72;69.44;101464.34;4194315;28;20426;-66
2023/05/21 07:09:09;;;;;;;;;;;;;;;17.74;70.21;101462.28;4190431;28;20455;-65
2023/05/21 07:11:11;;;;;;;;;;;;;;;17.78;69.44;101468.16;4193305;28;20007;-66
2023/05/21 07:13:13;;;;;;;;;;;;;;;17.80;69.49;101466.06;4193481;28;20015;-66
2023/05/21 07:15:15;;;;;;;;;;;;;;;17.83;69.63;101468.38;4193179;28;20031;-66
2023/05/21 07:17:18;;;;;;;;;;;;;;;17.85;68.83;101463.53;4191318;28;20036;-66
2023/05/21 07:19:21;;;;;;;;;;;;;;;17.88;69.42;101465.88;4191165;28;20019;-66
2023/05/21 07:21:24;;;;;;;;;;;;;;;17.92;68.22;101461.69;4192706;28;20389;-66
2023/05/21 07:23:29;;;;;;;;;;;;;;;17.94;68.61;101458.75;4192525;28;20019;-65
2023/05/21 07:25:31;;;;;;;;;;;;;;;17.96;68.18;101454.78;4192727;28;20011;-66
2023/05/21 07:27:32;;;;;;;;;;;;;;;17.99;68.16;101459.81;4190958;28;20020;-64
2023/05/21 07:29:35;;;;;;;;;;;;;;;18.00;68.59;101460.66;4192747;28;20461;-64
2023/05/21 07:31:40;;;;;;;;;;;;;;;18.05;67.49;101455.41;4192141;28;20012;-65
2023/05/21 07:33:42;;;;;;;;;;;;;;;18.07;67.56;101455.19;4207187;28;20051;-66
2023/05/21 07:35:46;;;;;;;;;;;;;;;18.09;67.83;101458.56;4193479;28;20055;-65
2023/05/21 07:37:48;;;;;;;;;;;;;;;18.11;67.31;101454.56;4194212;28;20020;-66
2023/05/21 07:39:52;;;;;;;;;;;;;;;18.15;67.04;101455.84;4193310;28;20011;-66
2023/05/21 07:41:54;;;;;;;;;;;;;;;18.19;67.20;101443.41;4191352;28;20023;-66
2023/05/21 07:43:56;;;;;;;;;;;;;;;18.23;67.26;101451.19;4192595;28;20023;-66
2023/05/21 07:45:58;;;;;;;;;;;;;;;18.26;67.33;101450.78;4184953;28;20035;-66
2023/05/21 07:48:01;;;;;;;;;;;;;;;18.28;66.97;101456.88;4184437;28;20339;-65
2023/05/21 07:50:06;;;;;;;;;;;;;;;18.29;66.40;101448.47;4185248;28;20398;-65
2023/05/21 07:52:08;;;;;;;;;;;;;;;18.33;67.10;101449.72;4191595;28;20370;-65
2023/05/21 07:54:11;;;;;;;;;;;;;;;18.35;67.71;101447.63;4192141;28;20061;-66
2023/05/21 07:56:14;;;;;;;;;;;;;;;18.41;66.20;101450.56;4193000;28;20023;-66
2023/05/21 07:58:19;;;;;;;;;;;;;;;18.47;66.10;101446.97;4191318;28;19936;-66
2023/05/21 08:00:22;;;;;;;;;;;;;;;18.49;66.44;101437.50;4186598;28;20028;-65
2023/05/21 08:02:28;;;;;;;;;;;;;;;18.49;67.28;101440.22;4209469;28;20038;-65
2023/05/21 08:04:30;;;;;;;;;;;;;;;18.50;67.00;101438.34;4190877;28;20027;-66
2023/05/21 08:06:33;;;;;;;;;;;;;;;18.55;66.38;101430.34;4192546;28;20388;-66
2023/05/21 08:08:35;;;;;;;;;;;;;;;18.57;66.71;101435.59;4191207;28;20023;-65
2023/05/21 08:10:37;;;;;;;;;;;;;;;18.60;67.22;101429.69;4193062;28;20355;-64
2023/05/21 08:12:41;;;;;;;;;;;;;;;18.64;65.99;101439.19;4206802;28;20011;-65
2023/05/21 08:14:43;;;;;;;;;;;;;;;18.65;66.66;101438.09;4188494;28;20019;-65
2023/05/21 08:16:47;;;;;;;;;;;;;;;18.67;66.55;101436.00;4192510;28;20031;-65
2023/05/21 08:18:49;;;;;;;;;;;;;;;18.67;66.82;101445.06;4193398;28;20035;-65
2023/05/21 08:20:52;;;;;;;;;;;;;;;18.67;66.57;101434.09;4195338;28;20019;-65
2023/05/21 08:22:55;;;;;;;;;;;;;;;18.68;67.03;101435.81;4193328;28;20349;-65
2023/05/21 08:24:58;;;;;;;;;;;;;;;18.75;66.05;101441.25;4195280;28;20007;-65
2023/05/21 08:27:00;;;;;;;;;;;;;;;18.78;65.76;101443.56;4195652;28;20039;-66
2023/05/21 08:29:03;;;;;;;;;;;;;;;18.84;65.99;101441.84;4196959;28;20048;-66
2023/05/21 08:31:05;;;;;;;;;;;;;;;18.87;66.05;101441.44;4195355;28;19950;-65
2023/05/21 08:33:12;;;;;;;;;;;;;;;18.86;66.15;101437.88;4208170;28;20011;-65
2023/05/21 08:35:15;;;;;;;;;;;;;;;18.87;65.70;101434.09;4195450;28;20024;-67
2023/05/21 08:37:46;;;;;;;;;;;;;;;18.90;65.76;101432.81;4197922;28;20007;-66
2023/05/21 08:40:12;;;;;;;;;;;;;;;18.92;65.31;101444.41;4193815;28;20113;-66
2023/05/21 08:42:24;;;;;;;;;;;;;;;18.99;65.18;101436.97;4194049;28;20023;-65
2023/05/21 08:44:27;;;;;;;;;;;;;;;19.03;65.42;101440.16;4209295;28;20043;-65
2023/05/21 08:46:32;;;;;;;;;;;;;;;19.05;65.67;101436.13;4211172;28;20354;-65
2023/05/21 08:48:34;;;;;;;;;;;;;;;19.08;64.95;101434.84;4196088;28;20383;-65
2023/05/21 08:50:36;;;;;;;;;;;;;;;19.07;65.99;101433.16;4192637;28;20365;-65
2023/05/21 08:52:56;;;;;;;;;;;;;;;19.08;65.90;101427.47;4189101;28;19986;-65
2023/05/21 08:54:58;;;;;;;;;;;;;;;19.12;65.78;101436.09;4195792;28;20007;-65
2023/05/21 08:57:00;;;;;;;;;;;;;;;19.15;65.54;101424.69;4193121;28;20148;-66
2023/05/21 08:59:05;;;;;;;;;;;;;;;19.19;65.84;101423.22;4195449;28;20035;-66
2023/05/21 09:01:12;;;;;;;;;;;;;;;19.21;65.50;101423.00;4195451;28;20518;-66
2023/05/21 09:03:21;;;;;;;;;;;;;;;19.24;65.27;101426.13;4196074;28;20019;-66
2023/05/21 09:05:23;;;;;;;;;;;;;;;19.24;65.26;101428.03;4194882;28;20007;-66
2023/05/21 09:07:28;;;;;;;;;;;;;;;19.27;64.93;101428.44;4191827;28;20031;-66
2023/05/21 09:09:47;;;;;;;;;;;;;;;19.35;64.37;101423.78;4195471;28;20023;-66
2023/05/21 09:11:49;;;;;;;;;;;;;;;19.39;65.13;101420.38;4188812;28;20031;-66
2023/05/21 09:13:51;;;;;;;;;;;;;;;19.44;64.45;101426.03;4194756;28;20402;-67
2023/05/21 09:16:00;;;;;;;;;;;;;;;19.45;64.47;101430.47;4192124;28;20031;-66
2023/05/21 09:18:03;;;;;;;;;;;;;;;19.47;64.09;101424.75;4177010;28;20039;-65
2023/05/21 09:20:15;;;;;;;;;;;;;;;19.47;64.37;101422.03;4195494;28;20036;-66
2023/05/21 09:22:23;;;;;;;;;;;;;;;19.52;64.01;101421.38;4194121;28;20007;-65
2023/05/21 09:24:25;;;;;;;;;;;;;;;19.55;63.98;101429.16;4195649;28;20019;-66
2023/05/21 09:26:27;;;;;;;;;;;;;;;19.52;64.27;101413.97;4190391;28;20392;-66
2023/05/21 09:28:33;;;;;;;;;;;;;;;19.53;64.35;101421.16;4194687;28;20771;-65
2023/05/21 09:30:37;;;;;;;;;;;;;;;19.53;64.01;101418.41;4192342;28;20067;-65
2023/05/21 09:32:39;;;;;;;;;;;;;;;19.59;63.80;101417.53;4210767;28;20019;-66
2023/05/21 09:34:43;;;;;;;;;;;;;;;19.64;63.10;101416.88;4206021;28;20015;-66
2023/05/21 09:36:45;;;;;;;;;;;;;;;19.61;63.70;101417.31;4194602;28;20020;-67
2023/05/21 09:38:51;;;;;;;;;;;;;;;19.63;63.26;101416.00;4192604;28;20015;-66
2023/05/21 09:40:54;;;;;;;;;;;;;;;19.66;63.61;101411.16;4190858;28;20442;-67
2023/05/21 09:42:57;;;;;;;;;;;;;;;19.69;63.46;101406.06;4194542;28;20015;-66
2023/05/21 09:45:00;;;;;;;;;;;;;;;19.71;63.22;101414.91;4193039;28;20027;-67
2023/05/21 09:47:02;;;;;;;;;;;;;;;19.73;63.03;101393.63;4201246;28;20011;-67
2023/05/21 09:49:05;;;;;;;;;;;;;;;19.73;63.25;101407.31;4193179;28;20358;-65
2023/05/21 09:51:12;;;;;;;;;;;;;;;19.75;63.19;101405.19;4192133;28;20023;-66
2023/05/21 09:53:14;;;;;;;;;;;;;;;19.81;62.40;101398.00;4193549;28;20035;-67
2023/05/21 09:55:16;;;;;;;;;;;;;;;19.80;62.92;101396.34;4191465;28;20466;-67
2023/05/21 09:57:23;;;;;;;;;;;;;;;19.79;62.82;101391.91;4193304;28;20023;-65
2023/05/21 09:59:25;;;;;;;;;;;;;;;19.84;62.37;101386.59;4193940;28;20035;-66
2023/05/21 10:01:27;;;;;;;;;;;;;;;19.90;62.04;101395.81;4190247;28;20035;-66
2023/05/21 10:03:29;;;;;;;;;;;;;;;19.90;62.13;101399.41;4190499;28;20027;-66
2023/05/21 10:05:31;;;;;;;;;;;;;;;19.90;61.85;101388.44;4191926;28;20014;-65
2023/05/21 10:07:35;;;;;;;;;;;;;;;19.91;61.99;101395.59;4193752;28;20026;-66
2023/05/21 10:09:39;;;;;;;;;;;;;;;19.96;61.50;101392.19;4192925;28;20015;-66
2023/05/21 10:11:42;;;;;;;;;;;;;;;19.95;61.64;101385.88;4191955;28;20043;-64
2023/05/21 10:13:45;;;;;;;;;;;;;;;19.97;61.04;101383.75;4194365;28;20011;-66
2023/05/21 10:15:48;;;;;;;;;;;;;;;19.98;60.91;101379.94;4187288;28;20368;-66
2023/05/21 10:17:50;;;;;;;;;;;;;;;20.01;60.35;101375.91;4193878;28;20633;-66
2023/05/21 10:19:53;;;;;;;;;;;;;;;20.04;60.21;101367.22;4193015;28;20023;-66
2023/05/21 10:21:56;;;;;;;;;;;;;;;20.05;60.15;101368.91;4189657;28;20457;-65
2023/05/21 10:24:00;;;;;;;;;;;;;;;20.07;60.29;101368.69;4192339;28;20027;-66
2023/05/21 10:26:02;;;;;;;;;;;;;;;20.09;60.45;101372.03;4192386;28;20019;-66
2023/05/21 10:28:05;;;;;;;;;;;;;;;20.12;60.14;101360.63;4194295;28;20023;-66
2023/05/21 10:30:08;;;;;;;;;;;;;;;20.14;60.26;101363.97;4194771;28;20027;-66
2023/05/21 10:32:10;;;;;;;;;;;;;;;20.19;59.82;101361.41;4193861;28;20031;-66
2023/05/21 10:34:12;;;;;;;;;;;;;;;20.22;59.99;101352.72;4194819;28;20371;-66